sensor_id;sensor_type;location;lat;lon;timestamp;P1;durP1;ratioP1;P2;durP2;ratioP2
45388;SDS011;31127;52.078;4.370;2023-07-29T00:00:49;5.35;;;2.45;;
45388;SDS011;31127;52.078;4.370;2023-07-29T00:05:44;7.23;;;1.97;;
45388;SDS011;31127;52.078;4.370;2023-07-29T00:10:40;4.15;;;1.70;;
45388;SDS011;31127;52.078;4.370;2023-07-29T00:15:35;3.75;;;2.45;;
45388;SDS011;31127;52.078;4.370;2023-07-29T00:20:31;8.45;;;2.08;;
45388;SDS011;31127;52.078;4.370;2023-07-29T00:25:26;1.92;;;1.52;;
45388;SDS011;31127;52.078;4.370;2023-07-29T00:30:42;8.32;;;2.35;;
45388;SDS011;31127;52.078;4.370;2023-07-29T00:35:57;4.00;;;1.85;;
45388;SDS011;31127;52.078;4.370;2023-07-29T00:40:57;4.60;;;2.13;;
45388;SDS011;31127;52.078;4.370;2023-07-29T00:45:53;6.88;;;1.63;;
45388;SDS011;31127;52.078;4.370;2023-07-29T00:50:49;2.58;;;1.73;;
45388;SDS011;31127;52.078;4.370;2023-07-29T00:55:45;5.82;;;2.35;;
45388;SDS011;31127;52.078;4.370;2023-07-29T01:00:41;4.80;;;1.88;;
45388;SDS011;31127;52.078;4.370;2023-07-29T01:05:39;6.90;;;2.08;;
45388;SDS011;31127;52.078;4.370;2023-07-29T01:10:58;5.18;;;1.88;;
45388;SDS011;31127;52.078;4.370;2023-07-29T01:15:54;3.47;;;1.70;;
45388;SDS011;31127;52.078;4.370;2023-07-29T01:20:51;10.13;;;2.58;;
45388;SDS011;31127;52.078;4.370;2023-07-29T01:25:48;4.85;;;2.30;;
45388;SDS011;31127;52.078;4.370;2023-07-29T01:30:43;5.80;;;2.70;;
45388;SDS011;31127;52.078;4.370;2023-07-29T01:35:46;7.40;;;2.40;;
45388;SDS011;31127;52.078;4.370;2023-07-29T01:40:43;5.97;;;2.70;;
45388;SDS011;31127;52.078;4.370;2023-07-29T01:46:00;4.22;;;2.35;;
45388;SDS011;31127;52.078;4.370;2023-07-29T01:50:55;5.43;;;2.33;;
45388;SDS011;31127;52.078;4.370;2023-07-29T01:55:52;6.63;;;2.90;;
45388;SDS011;31127;52.078;4.370;2023-07-29T02:00:47;7.43;;;2.22;;
45388;SDS011;31127;52.078;4.370;2023-07-29T02:05:48;6.45;;;2.45;;
45388;SDS011;31127;52.078;4.370;2023-07-29T02:10:43;6.60;;;2.37;;
45388;SDS011;31127;52.078;4.370;2023-07-29T02:15:40;8.68;;;2.88;;
45388;SDS011;31127;52.078;4.370;2023-07-29T02:20:35;4.70;;;2.20;;
45388;SDS011;31127;52.078;4.370;2023-07-29T02:25:31;7.90;;;2.40;;
45388;SDS011;31127;52.078;4.370;2023-07-29T02:30:26;6.93;;;2.60;;
45388;SDS011;31127;52.078;4.370;2023-07-29T02:35:22;7.80;;;2.70;;
45388;SDS011;31127;52.078;4.370;2023-07-29T02:40:17;7.45;;;2.42;;
45388;SDS011;31127;52.078;4.370;2023-07-29T02:45:13;9.70;;;3.23;;
45388;SDS011;31127;52.078;4.370;2023-07-29T02:50:08;5.18;;;2.50;;
45388;SDS011;31127;52.078;4.370;2023-07-29T02:55:04;5.95;;;2.95;;
45388;SDS011;31127;52.078;4.370;2023-07-29T03:00:00;6.53;;;2.60;;
45388;SDS011;31127;52.078;4.370;2023-07-29T03:04:55;7.00;;;2.63;;
45388;SDS011;31127;52.078;4.370;2023-07-29T03:09:50;11.33;;;3.20;;
45388;SDS011;31127;52.078;4.370;2023-07-29T03:14:47;8.50;;;3.00;;
45388;SDS011;31127;52.078;4.370;2023-07-29T03:19:43;7.55;;;2.80;;
45388;SDS011;31127;52.078;4.370;2023-07-29T03:24:38;10.33;;;2.83;;
45388;SDS011;31127;52.078;4.370;2023-07-29T03:29:34;7.15;;;3.10;;
45388;SDS011;31127;52.078;4.370;2023-07-29T03:34:29;8.95;;;2.75;;
45388;SDS011;31127;52.078;4.370;2023-07-29T03:39:25;8.10;;;2.70;;
45388;SDS011;31127;52.078;4.370;2023-07-29T03:44:20;7.67;;;2.97;;
45388;SDS011;31127;52.078;4.370;2023-07-29T03:49:36;4.90;;;2.75;;
45388;SDS011;31127;52.078;4.370;2023-07-29T03:54:32;9.30;;;2.85;;
45388;SDS011;31127;52.078;4.370;2023-07-29T03:59:27;6.38;;;3.30;;
45388;SDS011;31127;52.078;4.370;2023-07-29T04:04:23;7.38;;;2.88;;
45388;SDS011;31127;52.078;4.370;2023-07-29T04:09:38;11.18;;;3.78;;
45388;SDS011;31127;52.078;4.370;2023-07-29T04:14:34;7.03;;;3.25;;
45388;SDS011;31127;52.078;4.370;2023-07-29T04:19:30;10.32;;;3.63;;
45388;SDS011;31127;52.078;4.370;2023-07-29T04:24:26;8.48;;;3.55;;
45388;SDS011;31127;52.078;4.370;2023-07-29T04:29:22;12.02;;;3.40;;
45388;SDS011;31127;52.078;4.370;2023-07-29T04:34:18;9.05;;;2.97;;
45388;SDS011;31127;52.078;4.370;2023-07-29T04:39:35;8.13;;;3.53;;
45388;SDS011;31127;52.078;4.370;2023-07-29T04:44:31;8.07;;;3.78;;
45388;SDS011;31127;52.078;4.370;2023-07-29T04:49:27;5.82;;;3.22;;
45388;SDS011;31127;52.078;4.370;2023-07-29T04:54:22;9.37;;;3.13;;
45388;SDS011;31127;52.078;4.370;2023-07-29T04:59:18;8.30;;;3.58;;
45388;SDS011;31127;52.078;4.370;2023-07-29T05:04:13;5.77;;;3.27;;
45388;SDS011;31127;52.078;4.370;2023-07-29T05:09:12;8.70;;;3.87;;
45388;SDS011;31127;52.078;4.370;2023-07-29T05:14:08;8.32;;;3.85;;
45388;SDS011;31127;52.078;4.370;2023-07-29T05:19:04;10.30;;;3.67;;
45388;SDS011;31127;52.078;4.370;2023-07-29T05:24:00;8.35;;;3.08;;
45388;SDS011;31127;52.078;4.370;2023-07-29T05:28:55;11.65;;;3.67;;
45388;SDS011;31127;52.078;4.370;2023-07-29T05:33:51;8.00;;;2.53;;
45388;SDS011;31127;52.078;4.370;2023-07-29T05:38:47;11.57;;;3.35;;
45388;SDS011;31127;52.078;4.370;2023-07-29T05:43:43;12.45;;;3.88;;
45388;SDS011;31127;52.078;4.370;2023-07-29T05:48:38;6.80;;;3.00;;
45388;SDS011;31127;52.078;4.370;2023-07-29T05:53:54;11.18;;;3.50;;
45388;SDS011;31127;52.078;4.370;2023-07-29T05:58:49;7.25;;;3.15;;
45388;SDS011;31127;52.078;4.370;2023-07-29T06:03:46;8.05;;;2.60;;
45388;SDS011;31127;52.078;4.370;2023-07-29T06:08:42;9.52;;;3.97;;
45388;SDS011;31127;52.078;4.370;2023-07-29T06:13:37;6.30;;;1.98;;
45388;SDS011;31127;52.078;4.370;2023-07-29T06:18:33;6.78;;;1.80;;
45388;SDS011;31127;52.078;4.370;2023-07-29T06:23:30;4.32;;;1.70;;
45388;SDS011;31127;52.078;4.370;2023-07-29T06:28:26;7.18;;;2.13;;
45388;SDS011;31127;52.078;4.370;2023-07-29T06:33:21;4.00;;;1.27;;
45388;SDS011;31127;52.078;4.370;2023-07-29T06:38:37;8.60;;;2.15;;
45388;SDS011;31127;52.078;4.370;2023-07-29T06:43:33;7.05;;;2.10;;
45388;SDS011;31127;52.078;4.370;2023-07-29T06:48:28;8.10;;;2.27;;
45388;SDS011;31127;52.078;4.370;2023-07-29T06:53:24;8.47;;;2.20;;
45388;SDS011;31127;52.078;4.370;2023-07-29T06:58:20;8.55;;;2.20;;
45388;SDS011;31127;52.078;4.370;2023-07-29T07:03:16;10.93;;;2.45;;
45388;SDS011;31127;52.078;4.370;2023-07-29T07:08:11;7.70;;;1.90;;
45388;SDS011;31127;52.078;4.370;2023-07-29T07:13:06;7.13;;;2.00;;
45388;SDS011;31127;52.078;4.370;2023-07-29T07:18:02;6.07;;;2.47;;
45388;SDS011;31127;52.078;4.370;2023-07-29T07:22:57;7.28;;;2.40;;
45388;SDS011;31127;52.078;4.370;2023-07-29T07:27:53;7.13;;;2.17;;
45388;SDS011;31127;52.078;4.370;2023-07-29T07:32:48;6.30;;;1.70;;
45388;SDS011;31127;52.078;4.370;2023-07-29T07:37:45;5.30;;;1.75;;
45388;SDS011;31127;52.078;4.370;2023-07-29T07:43:01;9.40;;;2.30;;
45388;SDS011;31127;52.078;4.370;2023-07-29T07:47:56;10.40;;;2.25;;
45388;SDS011;31127;52.078;4.370;2023-07-29T07:52:52;7.20;;;2.55;;
45388;SDS011;31127;52.078;4.370;2023-07-29T07:57:47;5.13;;;2.63;;
45388;SDS011;31127;52.078;4.370;2023-07-29T08:02:43;7.88;;;2.70;;
45388;SDS011;31127;52.078;4.370;2023-07-29T08:07:59;5.93;;;2.35;;
45388;SDS011;31127;52.078;4.370;2023-07-29T08:12:54;8.63;;;3.38;;
45388;SDS011;31127;52.078;4.370;2023-07-29T08:17:50;7.73;;;2.47;;
45388;SDS011;31127;52.078;4.370;2023-07-29T08:23:05;5.20;;;2.30;;
45388;SDS011;31127;52.078;4.370;2023-07-29T08:28:00;5.13;;;2.10;;
45388;SDS011;31127;52.078;4.370;2023-07-29T08:32:56;5.97;;;2.03;;
45388;SDS011;31127;52.078;4.370;2023-07-29T08:37:51;6.18;;;2.13;;
45388;SDS011;31127;52.078;4.370;2023-07-29T08:42:47;5.63;;;1.88;;
45388;SDS011;31127;52.078;4.370;2023-07-29T08:47:42;9.50;;;2.28;;
45388;SDS011;31127;52.078;4.370;2023-07-29T08:52:38;5.97;;;2.10;;
45388;SDS011;31127;52.078;4.370;2023-07-29T08:57:34;8.07;;;2.38;;
45388;SDS011;31127;52.078;4.370;2023-07-29T09:02:29;5.65;;;1.90;;
45388;SDS011;31127;52.078;4.370;2023-07-29T09:07:25;8.30;;;2.00;;
45388;SDS011;31127;52.078;4.370;2023-07-29T09:12:21;7.28;;;2.20;;
45388;SDS011;31127;52.078;4.370;2023-07-29T09:17:16;11.00;;;1.92;;
45388;SDS011;31127;52.078;4.370;2023-07-29T09:22:32;8.88;;;2.13;;
45388;SDS011;31127;52.078;4.370;2023-07-29T09:27:48;6.07;;;1.88;;
45388;SDS011;31127;52.078;4.370;2023-07-29T09:32:43;7.07;;;2.65;;
45388;SDS011;31127;52.078;4.370;2023-07-29T09:37:39;10.80;;;2.70;;
45388;SDS011;31127;52.078;4.370;2023-07-29T09:42:54;23.42;;;14.98;;
45388;SDS011;31127;52.078;4.370;2023-07-29T09:47:51;4.93;;;2.63;;
45388;SDS011;31127;52.078;4.370;2023-07-29T09:52:46;6.80;;;3.00;;
45388;SDS011;31127;52.078;4.370;2023-07-29T09:58:02;6.22;;;2.38;;
45388;SDS011;31127;52.078;4.370;2023-07-29T10:02:59;5.10;;;2.28;;
45388;SDS011;31127;52.078;4.370;2023-07-29T10:07:55;5.00;;;2.17;;
45388;SDS011;31127;52.078;4.370;2023-07-29T10:12:50;4.72;;;1.80;;
45388;SDS011;31127;52.078;4.370;2023-07-29T10:17:46;4.72;;;1.90;;
45388;SDS011;31127;52.078;4.370;2023-07-29T10:22:43;4.32;;;1.30;;
45388;SDS011;31127;52.078;4.370;2023-07-29T10:27:42;4.15;;;1.05;;
45388;SDS011;31127;52.078;4.370;2023-07-29T10:33:02;3.45;;;1.13;;
45388;SDS011;31127;52.078;4.370;2023-07-29T10:37:58;2.47;;;0.77;;
45388;SDS011;31127;52.078;4.370;2023-07-29T10:43:10;7.70;;;1.58;;
45388;SDS011;31127;52.078;4.370;2023-07-29T10:48:12;10.50;;;1.37;;
45388;SDS011;31127;52.078;4.370;2023-07-29T10:53:29;5.93;;;1.40;;
45388;SDS011;31127;52.078;4.370;2023-07-29T10:58:25;4.93;;;1.25;;
45388;SDS011;31127;52.078;4.370;2023-07-29T11:03:25;3.25;;;1.20;;
45388;SDS011;31127;52.078;4.370;2023-07-29T11:08:27;4.22;;;1.15;;
45388;SDS011;31127;52.078;4.370;2023-07-29T11:13:25;2.70;;;1.30;;
45388;SDS011;31127;52.078;4.370;2023-07-29T11:18:21;3.70;;;1.50;;
45388;SDS011;31127;52.078;4.370;2023-07-29T11:23:16;4.25;;;2.35;;
45388;SDS011;31127;52.078;4.370;2023-07-29T11:28:12;4.47;;;1.90;;
45388;SDS011;31127;52.078;4.370;2023-07-29T11:33:07;2.35;;;1.38;;
45388;SDS011;31127;52.078;4.370;2023-07-29T11:38:03;4.53;;;1.90;;
45388;SDS011;31127;52.078;4.370;2023-07-29T11:43:18;5.75;;;2.20;;
45388;SDS011;31127;52.078;4.370;2023-07-29T11:48:14;3.10;;;1.30;;
45388;SDS011;31127;52.078;4.370;2023-07-29T11:53:09;3.20;;;1.30;;
45388;SDS011;31127;52.078;4.370;2023-07-29T11:58:06;4.50;;;1.88;;
45388;SDS011;31127;52.078;4.370;2023-07-29T12:03:02;6.10;;;1.65;;
45388;SDS011;31127;52.078;4.370;2023-07-29T12:07:57;4.03;;;1.50;;
45388;SDS011;31127;52.078;4.370;2023-07-29T12:12:53;2.70;;;1.60;;
45388;SDS011;31127;52.078;4.370;2023-07-29T12:17:48;2.72;;;1.20;;
45388;SDS011;31127;52.078;4.370;2023-07-29T12:23:04;1.85;;;1.38;;
45388;SDS011;31127;52.078;4.370;2023-07-29T12:28:07;2.10;;;0.90;;
45388;SDS011;31127;52.078;4.370;2023-07-29T12:33:31;2.47;;;1.40;;
45388;SDS011;31127;52.078;4.370;2023-07-29T12:38:47;2.60;;;1.15;;
45388;SDS011;31127;52.078;4.370;2023-07-29T12:44:03;1.90;;;1.23;;
45388;SDS011;31127;52.078;4.370;2023-07-29T12:48:58;3.47;;;1.48;;
45388;SDS011;31127;52.078;4.370;2023-07-29T12:53:54;2.20;;;1.27;;
45388;SDS011;31127;52.078;4.370;2023-07-29T12:58:49;4.50;;;1.35;;
45388;SDS011;31127;52.078;4.370;2023-07-29T13:03:45;5.27;;;1.80;;
45388;SDS011;31127;52.078;4.370;2023-07-29T13:08:40;3.70;;;1.33;;
45388;SDS011;31127;52.078;4.370;2023-07-29T13:13:36;3.40;;;1.42;;
45388;SDS011;31127;52.078;4.370;2023-07-29T13:18:32;2.78;;;1.33;;
45388;SDS011;31127;52.078;4.370;2023-07-29T13:23:48;2.00;;;1.35;;
45388;SDS011;31127;52.078;4.370;2023-07-29T13:28:44;3.10;;;1.33;;
45388;SDS011;31127;52.078;4.370;2023-07-29T13:33:59;3.53;;;1.30;;
45388;SDS011;31127;52.078;4.370;2023-07-29T13:38:55;4.13;;;1.77;;
45388;SDS011;31127;52.078;4.370;2023-07-29T13:43:50;6.53;;;1.30;;
45388;SDS011;31127;52.078;4.370;2023-07-29T13:48:45;2.77;;;1.30;;
45388;SDS011;31127;52.078;4.370;2023-07-29T13:53:41;4.43;;;1.67;;
45388;SDS011;31127;52.078;4.370;2023-07-29T13:58:39;3.35;;;1.70;;
45388;SDS011;31127;52.078;4.370;2023-07-29T14:03:34;5.10;;;2.15;;
45388;SDS011;31127;52.078;4.370;2023-07-29T14:08:30;3.60;;;1.75;;
45388;SDS011;31127;52.078;4.370;2023-07-29T14:13:26;4.32;;;2.63;;
45388;SDS011;31127;52.078;4.370;2023-07-29T14:18:41;4.38;;;1.83;;
45388;SDS011;31127;52.078;4.370;2023-07-29T14:23:37;4.38;;;1.77;;
45388;SDS011;31127;52.078;4.370;2023-07-29T14:28:52;6.05;;;2.28;;
45388;SDS011;31127;52.078;4.370;2023-07-29T14:34:08;3.80;;;1.80;;
45388;SDS011;31127;52.078;4.370;2023-07-29T14:39:04;3.08;;;2.00;;
45388;SDS011;31127;52.078;4.370;2023-07-29T14:44:00;2.42;;;1.50;;
45388;SDS011;31127;52.078;4.370;2023-07-29T14:48:55;4.65;;;1.55;;
45388;SDS011;31127;52.078;4.370;2023-07-29T14:53:51;4.97;;;2.38;;
45388;SDS011;31127;52.078;4.370;2023-07-29T14:58:46;5.13;;;2.15;;
45388;SDS011;31127;52.078;4.370;2023-07-29T15:03:42;5.83;;;1.67;;
45388;SDS011;31127;52.078;4.370;2023-07-29T15:08:37;4.68;;;1.98;;
45388;SDS011;31127;52.078;4.370;2023-07-29T15:13:33;6.00;;;2.30;;
45388;SDS011;31127;52.078;4.370;2023-07-29T15:18:28;3.90;;;1.80;;
45388;SDS011;31127;52.078;4.370;2023-07-29T15:23:25;4.05;;;1.73;;
45388;SDS011;31127;52.078;4.370;2023-07-29T15:28:20;4.78;;;1.95;;
45388;SDS011;31127;52.078;4.370;2023-07-29T15:33:17;5.53;;;1.98;;
45388;SDS011;31127;52.078;4.370;2023-07-29T15:38:12;5.72;;;2.40;;
45388;SDS011;31127;52.078;4.370;2023-07-29T15:43:08;5.28;;;2.33;;
45388;SDS011;31127;52.078;4.370;2023-07-29T15:48:03;6.28;;;2.35;;
45388;SDS011;31127;52.078;4.370;2023-07-29T15:52:59;6.95;;;2.70;;
45388;SDS011;31127;52.078;4.370;2023-07-29T15:58:14;6.82;;;2.90;;
45388;SDS011;31127;52.078;4.370;2023-07-29T16:03:10;9.77;;;3.77;;
45388;SDS011;31127;52.078;4.370;2023-07-29T16:08:05;6.30;;;2.77;;
45388;SDS011;31127;52.078;4.370;2023-07-29T16:13:01;7.70;;;2.60;;
45388;SDS011;31127;52.078;4.370;2023-07-29T16:18:00;6.80;;;2.92;;
45388;SDS011;31127;52.078;4.370;2023-07-29T16:22:56;9.30;;;3.03;;
45388;SDS011;31127;52.078;4.370;2023-07-29T16:27:52;14.93;;;4.28;;
45388;SDS011;31127;52.078;4.370;2023-07-29T16:32:48;13.75;;;3.78;;
45388;SDS011;31127;52.078;4.370;2023-07-29T16:37:44;9.43;;;3.40;;
45388;SDS011;31127;52.078;4.370;2023-07-29T16:42:39;11.07;;;3.65;;
45388;SDS011;31127;52.078;4.370;2023-07-29T16:47:35;11.33;;;3.60;;
45388;SDS011;31127;52.078;4.370;2023-07-29T16:52:31;8.07;;;3.75;;
45388;SDS011;31127;52.078;4.370;2023-07-29T16:57:47;8.80;;;2.97;;
45388;SDS011;31127;52.078;4.370;2023-07-29T17:02:42;9.90;;;2.88;;
45388;SDS011;31127;52.078;4.370;2023-07-29T17:07:38;11.00;;;3.23;;
45388;SDS011;31127;52.078;4.370;2023-07-29T17:12:33;10.23;;;3.57;;
45388;SDS011;31127;52.078;4.370;2023-07-29T17:17:48;11.27;;;3.40;;
45388;SDS011;31127;52.078;4.370;2023-07-29T17:22:44;11.15;;;3.55;;
45388;SDS011;31127;52.078;4.370;2023-07-29T17:27:59;13.02;;;4.32;;
45388;SDS011;31127;52.078;4.370;2023-07-29T17:32:55;13.95;;;4.47;;
45388;SDS011;31127;52.078;4.370;2023-07-29T17:37:51;12.80;;;4.10;;
45388;SDS011;31127;52.078;4.370;2023-07-29T17:42:47;13.15;;;4.40;;
45388;SDS011;31127;52.078;4.370;2023-07-29T17:48:02;15.45;;;4.65;;
45388;SDS011;31127;52.078;4.370;2023-07-29T17:52:57;13.50;;;4.35;;
45388;SDS011;31127;52.078;4.370;2023-07-29T17:58:13;14.77;;;4.60;;
45388;SDS011;31127;52.078;4.370;2023-07-29T18:03:12;14.40;;;4.45;;
45388;SDS011;31127;52.078;4.370;2023-07-29T18:08:08;17.73;;;5.53;;
45388;SDS011;31127;52.078;4.370;2023-07-29T18:13:03;16.13;;;4.95;;
45388;SDS011;31127;52.078;4.370;2023-07-29T18:17:59;12.93;;;4.50;;
45388;SDS011;31127;52.078;4.370;2023-07-29T18:22:55;17.88;;;4.90;;
45388;SDS011;31127;52.078;4.370;2023-07-29T18:28:11;18.13;;;5.53;;
45388;SDS011;31127;52.078;4.370;2023-07-29T18:33:06;16.10;;;5.32;;
45388;SDS011;31127;52.078;4.370;2023-07-29T18:38:03;27.65;;;6.75;;
45388;SDS011;31127;52.078;4.370;2023-07-29T18:42:58;16.08;;;5.10;;
45388;SDS011;31127;52.078;4.370;2023-07-29T18:48:14;17.25;;;4.75;;
45388;SDS011;31127;52.078;4.370;2023-07-29T18:53:09;22.95;;;6.03;;
45388;SDS011;31127;52.078;4.370;2023-07-29T18:58:04;19.40;;;5.07;;
45388;SDS011;31127;52.078;4.370;2023-07-29T19:03:00;25.47;;;5.63;;
45388;SDS011;31127;52.078;4.370;2023-07-29T19:07:55;23.65;;;6.45;;
45388;SDS011;31127;52.078;4.370;2023-07-29T19:12:51;21.07;;;5.97;;
45388;SDS011;31127;52.078;4.370;2023-07-29T19:17:51;22.10;;;6.32;;
45388;SDS011;31127;52.078;4.370;2023-07-29T19:22:46;28.75;;;6.65;;
45388;SDS011;31127;52.078;4.370;2023-07-29T19:27:42;23.43;;;5.57;;
45388;SDS011;31127;52.078;4.370;2023-07-29T19:32:37;36.45;;;10.85;;
45388;SDS011;31127;52.078;4.370;2023-07-29T19:37:34;29.67;;;6.65;;
45388;SDS011;31127;52.078;4.370;2023-07-29T19:42:29;25.75;;;6.97;;
45388;SDS011;31127;52.078;4.370;2023-07-29T19:47:25;28.83;;;5.80;;
45388;SDS011;31127;52.078;4.370;2023-07-29T19:52:20;23.63;;;6.03;;
45388;SDS011;31127;52.078;4.370;2023-07-29T19:57:16;30.90;;;6.77;;
45388;SDS011;31127;52.078;4.370;2023-07-29T20:02:11;26.45;;;9.57;;
45388;SDS011;31127;52.078;4.370;2023-07-29T20:07:12;28.42;;;6.90;;
45388;SDS011;31127;52.078;4.370;2023-07-29T20:12:08;25.80;;;5.63;;
45388;SDS011;31127;52.078;4.370;2023-07-29T20:17:04;26.33;;;6.35;;
45388;SDS011;31127;52.078;4.370;2023-07-29T20:21:59;22.17;;;5.05;;
45388;SDS011;31127;52.078;4.370;2023-07-29T20:26:55;22.92;;;6.07;;
45388;SDS011;31127;52.078;4.370;2023-07-29T20:31:50;24.13;;;5.30;;
45388;SDS011;31127;52.078;4.370;2023-07-29T20:36:46;20.02;;;5.13;;
45388;SDS011;31127;52.078;4.370;2023-07-29T20:41:41;31.10;;;8.13;;
45388;SDS011;31127;52.078;4.370;2023-07-29T20:46:55;31.85;;;9.50;;
45388;SDS011;31127;52.078;4.370;2023-07-29T20:51:50;22.23;;;5.00;;
45388;SDS011;31127;52.078;4.370;2023-07-29T20:56:46;22.57;;;6.23;;
45388;SDS011;31127;52.078;4.370;2023-07-29T21:01:42;22.58;;;5.95;;
45388;SDS011;31127;52.078;4.370;2023-07-29T21:06:37;24.45;;;5.68;;
45388;SDS011;31127;52.078;4.370;2023-07-29T21:11:33;27.75;;;6.05;;
45388;SDS011;31127;52.078;4.370;2023-07-29T21:16:28;25.80;;;5.93;;
45388;SDS011;31127;52.078;4.370;2023-07-29T21:21:44;24.73;;;5.95;;
45388;SDS011;31127;52.078;4.370;2023-07-29T21:26:41;23.23;;;6.50;;
45388;SDS011;31127;52.078;4.370;2023-07-29T21:31:36;26.83;;;6.35;;
45388;SDS011;31127;52.078;4.370;2023-07-29T21:36:32;30.17;;;6.85;;
45388;SDS011;31127;52.078;4.370;2023-07-29T21:41:27;27.25;;;6.00;;
45388;SDS011;31127;52.078;4.370;2023-07-29T21:46:23;24.23;;;6.13;;
45388;SDS011;31127;52.078;4.370;2023-07-29T21:51:38;30.70;;;6.28;;
45388;SDS011;31127;52.078;4.370;2023-07-29T21:56:34;30.40;;;6.07;;
45388;SDS011;31127;52.078;4.370;2023-07-29T22:01:30;27.50;;;6.55;;
45388;SDS011;31127;52.078;4.370;2023-07-29T22:06:46;23.80;;;5.40;;
45388;SDS011;31127;52.078;4.370;2023-07-29T22:12:01;33.28;;;8.63;;
45388;SDS011;31127;52.078;4.370;2023-07-29T22:16:57;35.85;;;9.68;;
45388;SDS011;31127;52.078;4.370;2023-07-29T22:21:52;28.90;;;8.43;;
45388;SDS011;31127;52.078;4.370;2023-07-29T22:26:48;31.15;;;7.35;;
45388;SDS011;31127;52.078;4.370;2023-07-29T22:31:43;31.43;;;6.93;;
45388;SDS011;31127;52.078;4.370;2023-07-29T22:36:39;27.10;;;6.32;;
45388;SDS011;31127;52.078;4.370;2023-07-29T22:41:35;28.27;;;6.50;;
45388;SDS011;31127;52.078;4.370;2023-07-29T22:46:31;28.05;;;5.78;;
45388;SDS011;31127;52.078;4.370;2023-07-29T22:51:26;26.88;;;6.05;;
45388;SDS011;31127;52.078;4.370;2023-07-29T22:56:22;34.85;;;7.85;;
45388;SDS011;31127;52.078;4.370;2023-07-29T23:01:17;27.85;;;6.15;;
45388;SDS011;31127;52.078;4.370;2023-07-29T23:06:13;21.52;;;6.00;;
45388;SDS011;31127;52.078;4.370;2023-07-29T23:11:08;23.50;;;6.47;;
45388;SDS011;31127;52.078;4.370;2023-07-29T23:16:04;30.92;;;5.95;;
45388;SDS011;31127;52.078;4.370;2023-07-29T23:20:59;31.03;;;6.10;;
45388;SDS011;31127;52.078;4.370;2023-07-29T23:25:55;34.55;;;6.90;;
45388;SDS011;31127;52.078;4.370;2023-07-29T23:30:54;28.52;;;5.65;;
45388;SDS011;31127;52.078;4.370;2023-07-29T23:35:50;32.95;;;6.57;;
45388;SDS011;31127;52.078;4.370;2023-07-29T23:40:46;25.42;;;5.82;;
45388;SDS011;31127;52.078;4.370;2023-07-29T23:45:41;28.90;;;7.30;;
45388;SDS011;31127;52.078;4.370;2023-07-29T23:50:37;31.73;;;7.53;;
45388;SDS011;31127;52.078;4.370;2023-07-29T23:55:52;26.42;;;5.75;;
